Harare, Zimbabwe
Current Conditions -  °F | °C
As of 8:00 AM on Monday 22 Dec 2014 (Local Time) from FLKK Reporting Station
Broken Clouds Broken Clouds  
Wind Chill: 19°   Ceiling: 9000
Heat Index: 19°   Visibility: 6mi
Dew Point: 18°   Wind: 5mph
Humidity: 94%   Direction: 100°E
Pressure: 30.09"   Gusts: NA
Location:  17.82°S, 31.05°E
Report Text: FLKK 220600Z 10004KT 9999 SCT008 BKN090 19/18 Q1019 NOSIG
Loading
Personal Weather Stations






























Interactive Weather Map New forecast layout! Learn more

10-Day Weather Forecast

Advertisements
Track Severe Weather on mobile